createdAt,value
2019-03-17T00:00:41.210Z,10.47
2019-03-17T00:05:46.217Z,15.40
2019-03-17T00:10:52.616Z,34.60
2019-03-17T00:15:57.774Z,11.93
2019-03-17T00:21:02.640Z,19.47
2019-03-17T00:26:07.378Z,17.43
2019-03-17T00:31:23.243Z,14.17
2019-03-17T00:36:18.407Z,19.27
2019-03-17T00:41:23.153Z,23.50
2019-03-17T00:46:27.890Z,27.07
2019-03-17T00:51:33.554Z,21.73
2019-03-17T00:56:38.195Z,23.67
2019-03-17T01:01:42.946Z,20.47
2019-03-17T01:06:47.683Z,19.67
2019-03-17T01:11:53.547Z,19.40
2019-03-17T01:16:59.340Z,17.77
2019-03-17T01:22:04.064Z,17.70
2019-03-17T01:27:08.801Z,8.67
2019-03-17T01:32:13.546Z,24.87
2019-03-17T01:37:18.392Z,18.73
2019-03-17T01:42:24.260Z,13.80
2019-03-17T01:47:29.008Z,14.43
2019-03-17T01:52:33.750Z,10.80
2019-03-17T01:57:38.488Z,14.77
2019-03-17T02:02:43.232Z,19.47
2019-03-17T02:07:47.975Z,18.93
2019-03-17T02:12:52.720Z,17.93
2019-03-17T02:17:57.457Z,22.03
2019-03-17T02:23:02.202Z,20.80
2019-03-17T02:28:06.835Z,30.70
2019-03-17T02:33:11.524Z,25.87
2019-03-17T02:38:16.184Z,21.93
2019-03-17T02:43:21.081Z,35.57
2019-03-17T02:48:25.651Z,30.67
2019-03-17T02:53:30.354Z,25.17
2019-03-17T02:58:34.987Z,23.60
2019-03-17T03:03:39.634Z,28.90
2019-03-17T03:08:44.277Z,31.57
2019-03-17T03:13:48.926Z,27.13
2019-03-17T03:18:53.657Z,21.50
2019-03-17T03:23:58.403Z,28.37
2019-03-17T03:29:03.035Z,27.70
2019-03-17T03:34:07.684Z,33.00
2019-03-17T03:39:12.456Z,23.40
2019-03-17T03:44:17.065Z,33.83
2019-03-17T03:49:21.715Z,34.13
2019-03-17T03:54:26.449Z,14.83
2019-03-17T03:59:31.195Z,29.33
2019-03-17T04:04:35.827Z,25.67
2019-03-17T04:09:42.232Z,31.43
2019-03-17T04:14:46.858Z,24.97
2019-03-17T04:19:51.603Z,28.37
2019-03-17T04:24:56.238Z,27.33
2019-03-17T04:30:00.906Z,27.53
2019-03-17T04:35:07.053Z,30.70
2019-03-17T04:40:11.805Z,28.67
2019-03-17T04:45:16.757Z,30.73
2019-03-17T04:50:21.386Z,28.10
2019-03-17T04:55:26.129Z,28.73
2019-03-17T05:00:32.639Z,46.77
2019-03-17T05:05:37.455Z,39.17
2019-03-17T05:10:42.201Z,37.30
2019-03-17T05:15:47.149Z,30.20
2019-03-17T05:20:52.319Z,25.87
2019-03-17T05:25:57.557Z,31.57
2019-03-17T05:31:02.400Z,37.23
2019-03-17T05:36:07.247Z,37.70
2019-03-17T05:41:11.896Z,45.47
2019-03-17T05:46:16.638Z,46.43
2019-03-17T05:51:21.264Z,42.80
2019-03-17T05:56:26.116Z,41.70
2019-03-17T06:01:30.758Z,115.23
2019-03-17T06:06:35.503Z,74.13
2019-03-17T06:11:40.345Z,49.73
2019-03-17T06:16:46.215Z,37.47
2019-03-17T06:21:52.713Z,31.30
2019-03-17T06:26:57.540Z,49.20
2019-03-17T06:32:02.287Z,44.50
2019-03-17T06:37:07.139Z,39.40
2019-03-17T06:42:11.895Z,49.67
2019-03-17T06:47:16.940Z,44.63
2019-03-17T06:52:23.969Z,43.40
2019-03-17T06:57:28.769Z,35.20
2019-03-17T07:02:33.510Z,32.87
2019-03-17T07:07:43.816Z,29.57
2019-03-17T07:12:44.857Z,47.23
2019-03-17T07:17:51.732Z,41.13
2019-03-17T07:22:57.311Z,39.20
2019-03-17T07:28:03.248Z,51.03
2019-03-17T07:33:08.324Z,47.10
2019-03-17T07:38:14.349Z,37.03
2019-03-17T07:43:20.209Z,40.27
2019-03-17T07:48:26.661Z,34.53
2019-03-17T07:53:33.878Z,33.83
2019-03-17T07:58:38.860Z,26.33
2019-03-17T08:03:43.591Z,19.10
2019-03-17T08:08:56.898Z,19.43
2019-03-17T08:14:06.231Z,18.30
2019-03-17T08:19:11.090Z,13.93
2019-03-17T08:24:16.439Z,13.73
2019-03-17T08:29:21.184Z,10.23
2019-03-17T08:34:28.545Z,12.80
2019-03-17T08:39:35.425Z,18.33
2019-03-17T08:44:41.457Z,13.60
2019-03-17T08:49:46.304Z,11.20
2019-03-17T08:54:51.386Z,17.60
2019-03-17T08:59:56.402Z,11.87
2019-03-17T09:05:01.678Z,10.60
2019-03-17T09:10:14.658Z,9.23
2019-03-17T09:15:21.525Z,10.93
2019-03-17T09:20:26.444Z,10.73
2019-03-17T09:25:32.990Z,13.87
2019-03-17T09:30:38.002Z,12.97
2019-03-17T09:35:42.633Z,12.23
2019-03-17T09:45:58.310Z,8.47
2019-03-17T09:51:03.340Z,12.57
2019-03-17T09:56:08.451Z,4.50
2019-03-17T10:01:13.194Z,5.73
2019-03-17T10:06:19.120Z,5.00
2019-03-17T10:11:24.357Z,10.47
2019-03-17T10:16:30.701Z,4.43
2019-03-17T10:21:35.646Z,11.50
2019-03-17T10:26:40.437Z,5.93
2019-03-17T10:31:46.154Z,9.60
2019-03-17T10:36:53.186Z,12.47
2019-03-17T10:41:58.850Z,13.07
2019-03-17T10:47:03.984Z,15.97
2019-03-17T10:52:09.236Z,42.07
2019-03-17T10:57:14.083Z,17.70
2019-03-17T11:02:18.840Z,17.60
2019-03-17T11:07:23.576Z,9.93
2019-03-17T11:12:28.524Z,4.97
2019-03-17T11:17:33.579Z,11.07
2019-03-17T11:22:43.774Z,11.73
2019-03-17T11:27:56.094Z,6.20
2019-03-17T11:33:07.624Z,8.33
2019-03-17T11:38:24.837Z,6.00
2019-03-17T11:43:31.907Z,17.50
2019-03-17T11:48:36.748Z,4.10
2019-03-17T11:53:42.042Z,4.13
2019-03-17T11:58:46.748Z,4.97
2019-03-17T12:03:51.697Z,4.50
2019-03-17T12:08:56.444Z,5.30
2019-03-17T12:14:01.194Z,9.37
2019-03-17T12:19:07.567Z,5.20
2019-03-17T12:24:12.355Z,6.23
2019-03-17T12:29:17.468Z,4.40
2019-03-17T12:34:28.062Z,5.37
2019-03-17T12:39:28.800Z,5.17
2019-03-17T12:44:33.746Z,2.87
2019-03-17T12:49:40.481Z,2.27
2019-03-17T12:54:45.185Z,3.77
2019-03-17T12:59:49.931Z,4.60
2019-03-17T13:04:54.658Z,8.40
2019-03-17T13:09:59.417Z,5.63
2019-03-17T13:15:06.439Z,3.13
2019-03-17T13:20:16.374Z,2.93
2019-03-17T13:25:21.125Z,5.33
2019-03-17T13:30:25.875Z,2.87
2019-03-17T13:35:30.609Z,6.47
2019-03-17T13:40:36.611Z,4.43
2019-03-17T13:45:41.436Z,6.43
2019-03-17T13:50:47.061Z,18.07
2019-03-17T13:55:51.940Z,4.27
2019-03-17T14:00:57.708Z,5.37
2019-03-17T14:06:03.262Z,3.53
2019-03-17T14:11:09.251Z,13.03
2019-03-17T14:16:15.829Z,7.13
2019-03-17T14:21:24.419Z,8.97
2019-03-17T14:26:28.465Z,3.33
2019-03-17T14:31:33.244Z,3.67
2019-03-17T14:36:38.087Z,4.20
2019-03-17T14:41:44.044Z,12.10
2019-03-17T14:46:50.694Z,8.80
2019-03-17T14:51:56.673Z,3.60
2019-03-17T14:57:01.344Z,5.63
2019-03-17T15:02:06.212Z,12.90
2019-03-17T15:07:10.900Z,5.27
2019-03-17T15:12:15.603Z,4.27
2019-03-17T15:17:20.547Z,4.03
2019-03-17T15:22:25.375Z,3.40
2019-03-17T15:27:30.240Z,3.63
2019-03-17T15:32:35.086Z,5.07
2019-03-17T15:37:40.031Z,15.57
2019-03-17T15:42:44.780Z,4.47
2019-03-17T15:47:50.131Z,45.07
2019-03-17T15:52:56.823Z,30.87
2019-03-17T15:58:01.429Z,29.00
2019-03-17T16:03:06.272Z,23.53
2019-03-17T16:08:11.360Z,22.60
2019-03-17T16:13:16.001Z,5.20
2019-03-17T16:18:20.757Z,9.17
2019-03-17T16:23:25.374Z,6.57
2019-03-17T16:28:30.035Z,9.83
2019-03-17T16:33:35.626Z,6.67
2019-03-17T16:38:40.352Z,12.00
2019-03-17T16:43:47.777Z,13.57
2019-03-17T16:48:56.205Z,12.30
2019-03-17T16:54:05.105Z,17.87
2019-03-17T16:59:14.138Z,20.60
2019-03-17T17:04:22.977Z,11.03
2019-03-17T17:09:28.510Z,20.03
2019-03-17T17:14:36.576Z,32.47
2019-03-17T17:19:45.347Z,14.60
2019-03-17T17:24:53.723Z,13.97
2019-03-17T17:30:02.114Z,14.10
2019-03-17T17:35:11.069Z,11.87
2019-03-17T17:40:23.665Z,63.03
2019-03-17T17:45:32.877Z,19.23
2019-03-17T17:50:42.227Z,27.03
2019-03-17T17:55:50.231Z,27.90
2019-03-17T18:01:00.732Z,22.47
2019-03-17T18:06:10.320Z,47.60
2019-03-17T18:11:16.709Z,22.47
2019-03-17T18:16:25.849Z,22.73
2019-03-17T18:21:35.321Z,25.50
2019-03-17T18:26:40.957Z,31.67
2019-03-17T18:31:45.799Z,35.83
2019-03-17T18:36:50.654Z,34.50
2019-03-17T18:41:55.394Z,21.80
2019-03-17T18:47:01.243Z,45.27
2019-03-17T18:52:10.120Z,43.27
2019-03-17T18:57:20.712Z,42.20
2019-03-17T19:02:26.757Z,38.20
2019-03-17T19:07:31.612Z,23.60
2019-03-17T19:12:44.936Z,35.87
2019-03-17T19:17:42.734Z,38.47
2019-03-17T19:22:49.013Z,34.33
2019-03-17T19:27:53.756Z,22.07
2019-03-17T19:32:58.498Z,22.90
2019-03-17T19:38:03.135Z,21.00
2019-03-17T19:43:08.185Z,26.50
2019-03-17T19:48:13.046Z,22.57
2019-03-17T19:53:18.112Z,35.57
2019-03-17T19:58:23.033Z,27.47
2019-03-17T20:03:28.488Z,29.87
2019-03-17T20:08:34.408Z,33.63
2019-03-17T20:13:39.740Z,28.43
2019-03-17T20:18:45.098Z,36.47
2019-03-17T20:23:50.600Z,36.63
2019-03-17T20:28:56.233Z,28.37
2019-03-17T20:34:02.175Z,31.63
2019-03-17T20:39:09.738Z,19.93
2019-03-17T20:44:14.535Z,16.37
2019-03-17T20:49:19.267Z,16.97
2019-03-17T20:54:23.910Z,24.70
2019-03-17T20:59:28.751Z,16.60
2019-03-17T21:04:33.317Z,18.03
2019-03-17T21:09:38.037Z,15.07
2019-03-17T21:14:42.779Z,22.80
2019-03-17T21:19:47.625Z,26.90
2019-03-17T21:24:52.369Z,24.20
2019-03-17T21:29:57.108Z,18.00
2019-03-17T21:35:01.855Z,17.90
2019-03-17T21:40:09.428Z,17.80
2019-03-17T21:45:14.397Z,20.60
2019-03-17T21:50:20.998Z,32.00
2019-03-17T21:55:25.945Z,37.43
2019-03-17T22:00:30.690Z,32.60
2019-03-17T22:05:35.431Z,26.77
2019-03-17T22:10:40.271Z,27.80
2019-03-17T22:15:45.230Z,19.00
2019-03-17T22:20:49.968Z,19.47
2019-03-17T22:25:54.811Z,29.77
2019-03-17T22:30:59.561Z,36.17
2019-03-17T22:36:04.307Z,30.13
2019-03-17T22:41:09.050Z,28.87
2019-03-17T22:46:13.786Z,27.10
2019-03-17T22:51:18.746Z,22.40
2019-03-17T22:56:23.683Z,23.03
2019-03-17T23:01:28.530Z,24.23
2019-03-17T23:06:33.188Z,22.43
2019-03-17T23:11:37.811Z,19.90
2019-03-17T23:16:42.407Z,17.83
2019-03-17T23:21:47.835Z,23.57
2019-03-17T23:26:52.758Z,20.17
2019-03-17T23:31:57.599Z,24.90
2019-03-17T23:37:02.343Z,24.10
2019-03-17T23:42:06.988Z,24.70
2019-03-17T23:47:11.630Z,33.07
2019-03-17T23:52:16.280Z,32.23
2019-03-17T23:57:21.113Z,34.50
